Beef Island, Islas Vírgenes Británicas

9:41 PM AST en Febrero 01, 2015 (GMT -0400)
Beef I International | Change Station
CLOSE
Current Station
Aeropuerto
Location: Beef Island,
Altura: 13 ft
Estaciones meteorológicas cercanas

Alt 13 ft 18.44 °N, 64.54 °W | Updated 41 minutes ago

Scattered Clouds
Nubes dispersas
77 ° F
Sensación térmica 77 ° F
N
8
Viento Variable Viento desde ENE

Hoy
Alta -- | Baja -- ° F
--% Posibilidad de precipitaciones
Ayer
Alta -- | Baja -- ° F
Precip. -- pul
6:51 AM 6:12 PM
Gibosa creciente, 97% visible
Presión 30.09 pul
Visibilidad 6.2 Millas
Nubes Nubes dispersas 2100 ft
Punto de rocío 66 ° F
Humedad 69%
Precipitaciones 0.00 pul
Espesor de la nieve No disponible.
UV 0 de una escala de 12
Polen No disponible.
Calidad del aire No disponible.
Flu Activity No disponible.
METAR TUPJ 020100Z 06007KT 9999 SCT021 25/19 Q1019 RMK A3010

More Conditions Fewer Conditions

Presión 30.09 pul
Visibilidad 6.2 Millas
Nubes Nubes dispersas 2100 ft
Punto de rocío 66 ° F
Humedad 69%
Precipitaciones 0.00 pul
Espesor de la nieve No disponible.
UV 0 de una escala de 12
Polen No disponible.
Calidad del aire No disponible.
Flu Activity No disponible.
METAR TUPJ 020100Z 06007KT 9999 SCT021 25/19 Q1019 RMK A3010

More Conditions Fewer Conditions

10-Day Weather Forecast

Almanac

Astronomía

Feb. 01, 2015 Salida Puesta
Hora real
Crepúsculo civil
Crepúsculo náutico
Crepúsculo astronómico
Luna
Horas de luz
Horas de luz
Tomorrow will be .
, % of the Moon is Illuminated

Extremos de hoy

Máximos del país Bajas del país

Community

WunderPhotos

Upload Photos

1,792,652 ¡fotos cargadas!

WunderBlogs® & News

Nearby

Calidad del aire

  Calidad del aire Índice AQ Contaminante
Not available.

Grosos de nieve

Estación Profundido Altura

Actividad de terremotos

Ciudad Distance Mag. Tiempo y dato
Magnitud mínima muestra es 2,5.

Temperaturas de aguas costeras

Lugar Temperatura

Estaciones meteorológicas cercanas